sensor_id;sensor_type;location;lat;lon;timestamp;P1;durP1;ratioP1;P2;durP2;ratioP2
77423;SDS011;66494;47.172;14.678;2023-05-21T00:00:58;9.43;;;7.90;;
77423;SDS011;66494;47.172;14.678;2023-05-21T00:01:59;9.68;;;7.50;;
77423;SDS011;66494;47.172;14.678;2023-05-21T00:02:59;9.75;;;7.90;;
77423;SDS011;66494;47.172;14.678;2023-05-21T00:04:00;12.13;;;7.88;;
77423;SDS011;66494;47.172;14.678;2023-05-21T00:05:00;20.67;;;7.82;;
77423;SDS011;66494;47.172;14.678;2023-05-21T00:06:00;9.77;;;7.07;;
77423;SDS011;66494;47.172;14.678;2023-05-21T00:07:02;8.27;;;6.57;;
77423;SDS011;66494;47.172;14.678;2023-05-21T00:08:03;11.35;;;7.00;;
77423;SDS011;66494;47.172;14.678;2023-05-21T00:09:03;12.82;;;6.82;;
77423;SDS011;66494;47.172;14.678;2023-05-21T00:10:04;9.65;;;6.80;;
77423;SDS011;66494;47.172;14.678;2023-05-21T00:11:05;9.00;;;6.78;;
77423;SDS011;66494;47.172;14.678;2023-05-21T00:12:06;9.68;;;7.72;;
77423;SDS011;66494;47.172;14.678;2023-05-21T00:13:06;10.90;;;7.68;;
77423;SDS011;66494;47.172;14.678;2023-05-21T00:14:07;11.57;;;7.15;;
77423;SDS011;66494;47.172;14.678;2023-05-21T00:15:08;10.20;;;6.82;;
77423;SDS011;66494;47.172;14.678;2023-05-21T00:16:08;12.07;;;7.93;;
77423;SDS011;66494;47.172;14.678;2023-05-21T00:17:10;8.68;;;6.75;;
77423;SDS011;66494;47.172;14.678;2023-05-21T00:18:10;8.40;;;6.85;;
77423;SDS011;66494;47.172;14.678;2023-05-21T00:19:10;9.70;;;6.82;;
77423;SDS011;66494;47.172;14.678;2023-05-21T00:20:11;9.27;;;6.45;;
77423;SDS011;66494;47.172;14.678;2023-05-21T00:21:12;9.20;;;6.72;;
77423;SDS011;66494;47.172;14.678;2023-05-21T00:22:13;8.98;;;6.97;;
77423;SDS011;66494;47.172;14.678;2023-05-21T00:23:13;9.48;;;7.18;;
77423;SDS011;66494;47.172;14.678;2023-05-21T00:24:17;9.75;;;7.03;;
77423;SDS011;66494;47.172;14.678;2023-05-21T00:25:17;8.27;;;7.03;;
77423;SDS011;66494;47.172;14.678;2023-05-21T00:26:17;9.68;;;7.35;;
77423;SDS011;66494;47.172;14.678;2023-05-21T00:27:17;9.70;;;7.90;;
77423;SDS011;66494;47.172;14.678;2023-05-21T00:28:17;10.52;;;7.57;;
77423;SDS011;66494;47.172;14.678;2023-05-21T00:29:18;8.93;;;7.57;;
77423;SDS011;66494;47.172;14.678;2023-05-21T00:30:18;8.75;;;7.20;;
77423;SDS011;66494;47.172;14.678;2023-05-21T00:31:18;8.05;;;6.88;;
77423;SDS011;66494;47.172;14.678;2023-05-21T00:32:18;9.23;;;7.13;;
77423;SDS011;66494;47.172;14.678;2023-05-21T00:33:19;10.13;;;7.47;;
77423;SDS011;66494;47.172;14.678;2023-05-21T00:34:20;10.73;;;7.57;;
77423;SDS011;66494;47.172;14.678;2023-05-21T00:35:20;10.32;;;8.38;;
77423;SDS011;66494;47.172;14.678;2023-05-21T00:36:21;8.43;;;6.85;;
77423;SDS011;66494;47.172;14.678;2023-05-21T00:37:23;12.43;;;8.10;;
77423;SDS011;66494;47.172;14.678;2023-05-21T00:38:23;12.57;;;7.53;;
77423;SDS011;66494;47.172;14.678;2023-05-21T00:39:26;8.52;;;7.03;;
77423;SDS011;66494;47.172;14.678;2023-05-21T00:40:27;11.18;;;7.65;;
77423;SDS011;66494;47.172;14.678;2023-05-21T00:41:27;8.55;;;7.28;;
77423;SDS011;66494;47.172;14.678;2023-05-21T00:42:29;9.73;;;7.63;;
77423;SDS011;66494;47.172;14.678;2023-05-21T00:43:29;9.98;;;7.88;;
77423;SDS011;66494;47.172;14.678;2023-05-21T00:44:32;9.65;;;8.35;;
77423;SDS011;66494;47.172;14.678;2023-05-21T00:45:33;11.60;;;8.07;;
77423;SDS011;66494;47.172;14.678;2023-05-21T00:46:35;11.13;;;7.68;;
77423;SDS011;66494;47.172;14.678;2023-05-21T00:47:35;9.90;;;7.82;;
77423;SDS011;66494;47.172;14.678;2023-05-21T00:48:36;12.32;;;8.65;;
77423;SDS011;66494;47.172;14.678;2023-05-21T00:49:37;11.70;;;8.82;;
77423;SDS011;66494;47.172;14.678;2023-05-21T00:50:37;9.52;;;7.32;;
77423;SDS011;66494;47.172;14.678;2023-05-21T00:51:40;9.98;;;8.27;;
77423;SDS011;66494;47.172;14.678;2023-05-21T00:52:41;11.25;;;9.02;;
77423;SDS011;66494;47.172;14.678;2023-05-21T00:53:43;14.77;;;8.23;;
77423;SDS011;66494;47.172;14.678;2023-05-21T00:55:43;10.83;;;8.67;;
77423;SDS011;66494;47.172;14.678;2023-05-21T00:56:44;12.23;;;8.60;;
77423;SDS011;66494;47.172;14.678;2023-05-21T00:57:44;10.45;;;8.05;;
77423;SDS011;66494;47.172;14.678;2023-05-21T00:58:45;11.63;;;8.05;;
77423;SDS011;66494;47.172;14.678;2023-05-21T00:59:47;10.95;;;8.27;;
77423;SDS011;66494;47.172;14.678;2023-05-21T01:00:48;10.93;;;9.00;;
77423;SDS011;66494;47.172;14.678;2023-05-21T01:01:49;10.35;;;8.75;;
77423;SDS011;66494;47.172;14.678;2023-05-21T01:02:54;11.35;;;8.15;;
77423;SDS011;66494;47.172;14.678;2023-05-21T01:03:55;12.00;;;8.13;;
77423;SDS011;66494;47.172;14.678;2023-05-21T01:04:56;13.68;;;8.00;;
77423;SDS011;66494;47.172;14.678;2023-05-21T01:05:56;11.80;;;8.82;;
77423;SDS011;66494;47.172;14.678;2023-05-21T01:06:59;12.05;;;8.13;;
77423;SDS011;66494;47.172;14.678;2023-05-21T01:08:00;13.82;;;8.43;;
77423;SDS011;66494;47.172;14.678;2023-05-21T01:09:01;11.88;;;8.90;;
77423;SDS011;66494;47.172;14.678;2023-05-21T01:10:04;10.55;;;7.43;;
77423;SDS011;66494;47.172;14.678;2023-05-21T01:11:05;10.63;;;8.10;;
77423;SDS011;66494;47.172;14.678;2023-05-21T01:12:05;12.05;;;7.47;;
77423;SDS011;66494;47.172;14.678;2023-05-21T01:13:06;11.38;;;7.75;;
77423;SDS011;66494;47.172;14.678;2023-05-21T01:14:07;14.75;;;7.68;;
77423;SDS011;66494;47.172;14.678;2023-05-21T01:15:09;9.85;;;7.88;;
77423;SDS011;66494;47.172;14.678;2023-05-21T01:16:09;11.07;;;7.28;;
77423;SDS011;66494;47.172;14.678;2023-05-21T01:17:12;10.50;;;7.38;;
77423;SDS011;66494;47.172;14.678;2023-05-21T01:18:12;10.65;;;7.72;;
77423;SDS011;66494;47.172;14.678;2023-05-21T01:19:14;9.05;;;7.13;;
77423;SDS011;66494;47.172;14.678;2023-05-21T01:20:15;8.43;;;6.78;;
77423;SDS011;66494;47.172;14.678;2023-05-21T01:21:19;14.40;;;7.13;;
77423;SDS011;66494;47.172;14.678;2023-05-21T01:22:20;12.23;;;7.90;;
77423;SDS011;66494;47.172;14.678;2023-05-21T01:24:21;10.73;;;7.67;;
77423;SDS011;66494;47.172;14.678;2023-05-21T01:25:22;12.15;;;7.60;;
77423;SDS011;66494;47.172;14.678;2023-05-21T01:26:23;9.77;;;6.57;;
77423;SDS011;66494;47.172;14.678;2023-05-21T01:27:24;9.85;;;6.80;;
77423;SDS011;66494;47.172;14.678;2023-05-21T01:28:25;14.80;;;7.43;;
77423;SDS011;66494;47.172;14.678;2023-05-21T01:29:25;9.00;;;6.43;;
77423;SDS011;66494;47.172;14.678;2023-05-21T01:30:25;8.43;;;6.32;;
77423;SDS011;66494;47.172;14.678;2023-05-21T01:31:27;7.75;;;5.93;;
77423;SDS011;66494;47.172;14.678;2023-05-21T01:33:40;11.63;;;7.07;;
77423;SDS011;66494;47.172;14.678;2023-05-21T01:36:01;8.13;;;6.20;;
77423;SDS011;66494;47.172;14.678;2023-05-21T01:37:08;9.20;;;7.20;;
77423;SDS011;66494;47.172;14.678;2023-05-21T01:39:29;8.05;;;6.68;;
77423;SDS011;66494;47.172;14.678;2023-05-21T01:40:33;11.77;;;6.72;;
77423;SDS011;66494;47.172;14.678;2023-05-21T01:41:36;8.00;;;6.35;;
77423;SDS011;66494;47.172;14.678;2023-05-21T01:42:38;9.88;;;6.68;;
77423;SDS011;66494;47.172;14.678;2023-05-21T01:43:40;7.75;;;6.20;;
77423;SDS011;66494;47.172;14.678;2023-05-21T01:44:41;10.00;;;7.07;;
77423;SDS011;66494;47.172;14.678;2023-05-21T01:45:41;8.73;;;6.57;;
77423;SDS011;66494;47.172;14.678;2023-05-21T01:47:43;8.03;;;5.87;;
77423;SDS011;66494;47.172;14.678;2023-05-21T01:48:46;9.40;;;7.30;;
77423;SDS011;66494;47.172;14.678;2023-05-21T01:49:49;8.85;;;7.05;;
77423;SDS011;66494;47.172;14.678;2023-05-21T01:50:49;8.40;;;6.68;;
77423;SDS011;66494;47.172;14.678;2023-05-21T01:51:50;9.25;;;6.38;;
77423;SDS011;66494;47.172;14.678;2023-05-21T01:52:54;9.40;;;6.43;;
77423;SDS011;66494;47.172;14.678;2023-05-21T01:53:55;8.43;;;7.15;;
77423;SDS011;66494;47.172;14.678;2023-05-21T01:54:56;7.95;;;6.60;;
77423;SDS011;66494;47.172;14.678;2023-05-21T01:55:56;7.90;;;6.65;;
77423;SDS011;66494;47.172;14.678;2023-05-21T01:56:58;9.13;;;6.90;;
77423;SDS011;66494;47.172;14.678;2023-05-21T01:57:59;10.55;;;6.90;;
77423;SDS011;66494;47.172;14.678;2023-05-21T01:58:59;8.90;;;7.43;;
77423;SDS011;66494;47.172;14.678;2023-05-21T01:59:59;9.02;;;7.25;;
77423;SDS011;66494;47.172;14.678;2023-05-21T02:01:00;10.70;;;7.22;;
77423;SDS011;66494;47.172;14.678;2023-05-21T02:02:01;8.65;;;7.32;;
77423;SDS011;66494;47.172;14.678;2023-05-21T02:03:02;9.85;;;7.55;;
77423;SDS011;66494;47.172;14.678;2023-05-21T02:04:02;7.75;;;5.90;;
77423;SDS011;66494;47.172;14.678;2023-05-21T02:05:02;11.15;;;7.55;;
77423;SDS011;66494;47.172;14.678;2023-05-21T02:06:02;10.95;;;7.32;;
77423;SDS011;66494;47.172;14.678;2023-05-21T02:07:03;12.52;;;8.15;;
77423;SDS011;66494;47.172;14.678;2023-05-21T02:08:03;9.70;;;7.15;;
77423;SDS011;66494;47.172;14.678;2023-05-21T02:09:04;10.10;;;7.22;;
77423;SDS011;66494;47.172;14.678;2023-05-21T02:10:04;10.32;;;8.18;;
77423;SDS011;66494;47.172;14.678;2023-05-21T02:11:05;10.05;;;7.65;;
77423;SDS011;66494;47.172;14.678;2023-05-21T02:12:07;11.63;;;8.27;;
77423;SDS011;66494;47.172;14.678;2023-05-21T02:13:07;10.23;;;7.55;;
77423;SDS011;66494;47.172;14.678;2023-05-21T02:14:08;11.30;;;8.13;;
77423;SDS011;66494;47.172;14.678;2023-05-21T02:15:09;11.85;;;9.00;;
77423;SDS011;66494;47.172;14.678;2023-05-21T02:16:10;12.25;;;8.68;;
77423;SDS011;66494;47.172;14.678;2023-05-21T02:18:11;10.93;;;7.63;;
77423;SDS011;66494;47.172;14.678;2023-05-21T02:19:15;11.18;;;7.80;;
77423;SDS011;66494;47.172;14.678;2023-05-21T02:20:15;10.57;;;8.05;;
77423;SDS011;66494;47.172;14.678;2023-05-21T02:21:16;9.95;;;7.95;;
77423;SDS011;66494;47.172;14.678;2023-05-21T02:22:16;11.25;;;8.65;;
77423;SDS011;66494;47.172;14.678;2023-05-21T02:23:16;10.98;;;8.75;;
77423;SDS011;66494;47.172;14.678;2023-05-21T02:24:17;13.27;;;8.05;;
77423;SDS011;66494;47.172;14.678;2023-05-21T02:25:17;10.50;;;8.48;;
77423;SDS011;66494;47.172;14.678;2023-05-21T02:26:18;12.85;;;8.13;;
77423;SDS011;66494;47.172;14.678;2023-05-21T02:27:18;10.95;;;8.10;;
77423;SDS011;66494;47.172;14.678;2023-05-21T02:28:19;11.10;;;8.68;;
77423;SDS011;66494;47.172;14.678;2023-05-21T02:30:20;11.57;;;7.63;;
77423;SDS011;66494;47.172;14.678;2023-05-21T02:31:20;11.07;;;8.32;;
77423;SDS011;66494;47.172;14.678;2023-05-21T02:32:20;12.18;;;8.27;;
77423;SDS011;66494;47.172;14.678;2023-05-21T02:33:22;10.82;;;8.45;;
77423;SDS011;66494;47.172;14.678;2023-05-21T02:34:22;11.50;;;8.70;;
77423;SDS011;66494;47.172;14.678;2023-05-21T02:35:23;14.07;;;10.35;;
77423;SDS011;66494;47.172;14.678;2023-05-21T02:36:24;15.82;;;8.88;;
77423;SDS011;66494;47.172;14.678;2023-05-21T02:37:24;12.48;;;9.68;;
77423;SDS011;66494;47.172;14.678;2023-05-21T02:38:26;12.95;;;8.80;;
77423;SDS011;66494;47.172;14.678;2023-05-21T02:39:26;12.07;;;8.55;;
77423;SDS011;66494;47.172;14.678;2023-05-21T02:40:27;12.60;;;9.55;;
77423;SDS011;66494;47.172;14.678;2023-05-21T02:41:27;12.23;;;8.73;;
77423;SDS011;66494;47.172;14.678;2023-05-21T02:42:27;11.57;;;9.43;;
77423;SDS011;66494;47.172;14.678;2023-05-21T02:43:27;12.68;;;9.05;;
77423;SDS011;66494;47.172;14.678;2023-05-21T02:44:28;11.93;;;8.35;;
77423;SDS011;66494;47.172;14.678;2023-05-21T02:45:28;12.88;;;9.10;;
77423;SDS011;66494;47.172;14.678;2023-05-21T02:46:28;10.57;;;9.15;;
77423;SDS011;66494;47.172;14.678;2023-05-21T02:47:28;10.00;;;8.23;;
77423;SDS011;66494;47.172;14.678;2023-05-21T02:48:29;12.60;;;8.65;;
77423;SDS011;66494;47.172;14.678;2023-05-21T02:49:29;11.30;;;8.40;;
77423;SDS011;66494;47.172;14.678;2023-05-21T02:50:29;12.73;;;8.95;;
77423;SDS011;66494;47.172;14.678;2023-05-21T02:51:29;13.02;;;9.05;;
77423;SDS011;66494;47.172;14.678;2023-05-21T02:52:30;12.10;;;8.60;;
77423;SDS011;66494;47.172;14.678;2023-05-21T02:53:30;11.85;;;8.27;;
77423;SDS011;66494;47.172;14.678;2023-05-21T02:54:30;11.50;;;7.78;;
77423;SDS011;66494;47.172;14.678;2023-05-21T02:55:31;10.65;;;8.18;;
77423;SDS011;66494;47.172;14.678;2023-05-21T02:56:31;11.13;;;8.60;;
77423;SDS011;66494;47.172;14.678;2023-05-21T02:57:31;12.05;;;8.25;;
77423;SDS011;66494;47.172;14.678;2023-05-21T02:58:31;10.93;;;7.70;;
77423;SDS011;66494;47.172;14.678;2023-05-21T02:59:32;12.13;;;8.52;;
77423;SDS011;66494;47.172;14.678;2023-05-21T03:00:32;10.00;;;8.32;;
77423;SDS011;66494;47.172;14.678;2023-05-21T03:01:32;14.07;;;7.45;;
77423;SDS011;66494;47.172;14.678;2023-05-21T03:02:33;9.30;;;7.05;;
77423;SDS011;66494;47.172;14.678;2023-05-21T03:03:33;10.88;;;8.18;;
77423;SDS011;66494;47.172;14.678;2023-05-21T03:04:33;9.45;;;7.63;;
77423;SDS011;66494;47.172;14.678;2023-05-21T03:05:37;10.50;;;8.20;;
77423;SDS011;66494;47.172;14.678;2023-05-21T03:06:37;9.50;;;7.60;;
77423;SDS011;66494;47.172;14.678;2023-05-21T03:07:38;10.15;;;7.22;;
77423;SDS011;66494;47.172;14.678;2023-05-21T03:08:38;10.65;;;7.40;;
77423;SDS011;66494;47.172;14.678;2023-05-21T03:09:39;9.50;;;7.20;;
77423;SDS011;66494;47.172;14.678;2023-05-21T03:10:40;9.82;;;7.35;;
77423;SDS011;66494;47.172;14.678;2023-05-21T03:11:41;9.55;;;7.60;;
77423;SDS011;66494;47.172;14.678;2023-05-21T03:12:41;10.48;;;7.78;;
77423;SDS011;66494;47.172;14.678;2023-05-21T03:13:42;10.75;;;8.57;;
77423;SDS011;66494;47.172;14.678;2023-05-21T03:14:42;10.30;;;7.68;;
77423;SDS011;66494;47.172;14.678;2023-05-21T03:15:43;10.20;;;7.40;;
77423;SDS011;66494;47.172;14.678;2023-05-21T03:16:43;10.02;;;7.50;;
77423;SDS011;66494;47.172;14.678;2023-05-21T03:17:43;9.50;;;7.47;;
77423;SDS011;66494;47.172;14.678;2023-05-21T03:18:43;10.57;;;7.85;;
77423;SDS011;66494;47.172;14.678;2023-05-21T03:19:44;11.25;;;7.93;;
77423;SDS011;66494;47.172;14.678;2023-05-21T03:20:44;10.68;;;7.93;;
77423;SDS011;66494;47.172;14.678;2023-05-21T03:21:44;11.55;;;8.75;;
77423;SDS011;66494;47.172;14.678;2023-05-21T03:22:44;9.82;;;7.88;;
77423;SDS011;66494;47.172;14.678;2023-05-21T03:23:45;9.27;;;7.95;;
77423;SDS011;66494;47.172;14.678;2023-05-21T03:24:45;10.38;;;8.13;;
77423;SDS011;66494;47.172;14.678;2023-05-21T03:25:45;10.43;;;7.85;;
77423;SDS011;66494;47.172;14.678;2023-05-21T03:26:46;11.40;;;7.45;;
77423;SDS011;66494;47.172;14.678;2023-05-21T03:28:47;10.80;;;7.73;;
77423;SDS011;66494;47.172;14.678;2023-05-21T03:29:47;11.32;;;8.82;;
77423;SDS011;66494;47.172;14.678;2023-05-21T03:30:47;9.63;;;7.05;;
77423;SDS011;66494;47.172;14.678;2023-05-21T03:31:51;10.48;;;7.90;;
77423;SDS011;66494;47.172;14.678;2023-05-21T03:32:52;12.07;;;8.55;;
77423;SDS011;66494;47.172;14.678;2023-05-21T03:33:52;11.80;;;8.00;;
77423;SDS011;66494;47.172;14.678;2023-05-21T03:34:53;10.82;;;8.27;;
77423;SDS011;66494;47.172;14.678;2023-05-21T03:35:53;10.02;;;8.25;;
77423;SDS011;66494;47.172;14.678;2023-05-21T03:36:53;13.27;;;8.95;;
77423;SDS011;66494;47.172;14.678;2023-05-21T03:37:53;12.70;;;8.18;;
77423;SDS011;66494;47.172;14.678;2023-05-21T03:38:54;10.70;;;8.02;;
77423;SDS011;66494;47.172;14.678;2023-05-21T03:39:54;9.40;;;7.82;;
77423;SDS011;66494;47.172;14.678;2023-05-21T03:40:54;9.32;;;8.00;;
77423;SDS011;66494;47.172;14.678;2023-05-21T03:41:55;10.10;;;7.65;;
77423;SDS011;66494;47.172;14.678;2023-05-21T03:42:55;11.30;;;8.32;;
77423;SDS011;66494;47.172;14.678;2023-05-21T03:43:55;11.98;;;7.97;;
77423;SDS011;66494;47.172;14.678;2023-05-21T03:44:55;10.45;;;7.40;;
77423;SDS011;66494;47.172;14.678;2023-05-21T03:45:55;12.93;;;7.97;;
77423;SDS011;66494;47.172;14.678;2023-05-21T03:46:56;12.45;;;8.00;;
77423;SDS011;66494;47.172;14.678;2023-05-21T03:47:56;9.35;;;7.47;;
77423;SDS011;66494;47.172;14.678;2023-05-21T03:48:56;8.63;;;6.88;;
77423;SDS011;66494;47.172;14.678;2023-05-21T03:49:59;10.88;;;7.53;;
77423;SDS011;66494;47.172;14.678;2023-05-21T03:51:00;9.95;;;7.32;;
77423;SDS011;66494;47.172;14.678;2023-05-21T03:52:00;9.95;;;7.35;;
77423;SDS011;66494;47.172;14.678;2023-05-21T03:53:00;8.95;;;7.25;;
77423;SDS011;66494;47.172;14.678;2023-05-21T03:54:01;10.07;;;7.72;;
77423;SDS011;66494;47.172;14.678;2023-05-21T03:55:01;11.95;;;8.57;;
77423;SDS011;66494;47.172;14.678;2023-05-21T03:56:01;10.32;;;8.30;;
77423;SDS011;66494;47.172;14.678;2023-05-21T03:57:01;11.48;;;8.27;;
77423;SDS011;66494;47.172;14.678;2023-05-21T03:58:02;9.57;;;7.65;;
77423;SDS011;66494;47.172;14.678;2023-05-21T03:59:02;11.40;;;9.43;;
77423;SDS011;66494;47.172;14.678;2023-05-21T04:00:02;10.32;;;7.88;;
77423;SDS011;66494;47.172;14.678;2023-05-21T04:01:03;10.95;;;8.30;;
77423;SDS011;66494;47.172;14.678;2023-05-21T04:02:04;13.23;;;8.23;;
77423;SDS011;66494;47.172;14.678;2023-05-21T04:03:04;12.65;;;8.07;;
77423;SDS011;66494;47.172;14.678;2023-05-21T04:04:05;11.15;;;8.43;;
77423;SDS011;66494;47.172;14.678;2023-05-21T04:05:06;9.73;;;7.50;;
77423;SDS011;66494;47.172;14.678;2023-05-21T04:06:06;9.68;;;7.85;;
77423;SDS011;66494;47.172;14.678;2023-05-21T04:07:08;14.63;;;8.95;;
77423;SDS011;66494;47.172;14.678;2023-05-21T04:08:13;10.90;;;8.35;;
77423;SDS011;66494;47.172;14.678;2023-05-21T04:09:13;13.13;;;9.13;;
77423;SDS011;66494;47.172;14.678;2023-05-21T04:10:13;13.55;;;9.63;;
77423;SDS011;66494;47.172;14.678;2023-05-21T04:11:14;11.98;;;8.23;;
77423;SDS011;66494;47.172;14.678;2023-05-21T04:12:14;12.40;;;8.65;;
77423;SDS011;66494;47.172;14.678;2023-05-21T04:13:14;10.77;;;7.93;;
77423;SDS011;66494;47.172;14.678;2023-05-21T04:14:14;12.20;;;8.05;;
77423;SDS011;66494;47.172;14.678;2023-05-21T04:15:15;12.38;;;9.32;;
77423;SDS011;66494;47.172;14.678;2023-05-21T04:16:17;10.35;;;8.40;;
77423;SDS011;66494;47.172;14.678;2023-05-21T04:17:18;10.30;;;7.88;;
77423;SDS011;66494;47.172;14.678;2023-05-21T04:18:19;9.98;;;7.75;;
77423;SDS011;66494;47.172;14.678;2023-05-21T04:19:22;10.82;;;8.30;;
77423;SDS011;66494;47.172;14.678;2023-05-21T04:20:23;11.57;;;8.00;;
77423;SDS011;66494;47.172;14.678;2023-05-21T04:21:23;12.18;;;8.65;;
77423;SDS011;66494;47.172;14.678;2023-05-21T04:22:23;10.88;;;8.20;;
77423;SDS011;66494;47.172;14.678;2023-05-21T04:23:25;9.35;;;7.60;;
77423;SDS011;66494;47.172;14.678;2023-05-21T04:24:26;10.45;;;8.07;;
77423;SDS011;66494;47.172;14.678;2023-05-21T04:25:26;11.75;;;8.88;;
77423;SDS011;66494;47.172;14.678;2023-05-21T04:26:27;12.65;;;7.57;;
77423;SDS011;66494;47.172;14.678;2023-05-21T04:27:28;10.32;;;8.20;;
77423;SDS011;66494;47.172;14.678;2023-05-21T04:28:28;8.50;;;7.18;;
77423;SDS011;66494;47.172;14.678;2023-05-21T04:29:29;13.98;;;8.35;;
77423;SDS011;66494;47.172;14.678;2023-05-21T04:30:29;9.40;;;7.40;;
77423;SDS011;66494;47.172;14.678;2023-05-21T04:31:29;10.88;;;8.48;;
77423;SDS011;66494;47.172;14.678;2023-05-21T04:32:31;11.40;;;7.97;;
77423;SDS011;66494;47.172;14.678;2023-05-21T04:34:32;9.13;;;7.20;;
77423;SDS011;66494;47.172;14.678;2023-05-21T04:35:32;9.57;;;7.88;;
77423;SDS011;66494;47.172;14.678;2023-05-21T04:36:34;10.40;;;7.82;;
77423;SDS011;66494;47.172;14.678;2023-05-21T04:37:34;12.82;;;8.82;;
77423;SDS011;66494;47.172;14.678;2023-05-21T04:38:35;12.13;;;8.23;;
77423;SDS011;66494;47.172;14.678;2023-05-21T04:39:35;11.73;;;8.77;;
77423;SDS011;66494;47.172;14.678;2023-05-21T04:40:36;9.77;;;7.57;;
77423;SDS011;66494;47.172;14.678;2023-05-21T04:41:36;11.25;;;8.85;;
77423;SDS011;66494;47.172;14.678;2023-05-21T04:43:38;11.53;;;8.13;;
77423;SDS011;66494;47.172;14.678;2023-05-21T04:44:42;11.18;;;7.68;;
77423;SDS011;66494;47.172;14.678;2023-05-21T04:45:43;10.07;;;8.05;;
77423;SDS011;66494;47.172;14.678;2023-05-21T04:46:44;10.43;;;7.30;;
77423;SDS011;66494;47.172;14.678;2023-05-21T04:47:44;11.20;;;7.47;;
77423;SDS011;66494;47.172;14.678;2023-05-21T04:48:45;10.80;;;7.82;;
77423;SDS011;66494;47.172;14.678;2023-05-21T04:49:45;9.63;;;7.25;;
77423;SDS011;66494;47.172;14.678;2023-05-21T04:50:46;11.98;;;8.23;;
77423;SDS011;66494;47.172;14.678;2023-05-21T04:51:46;13.90;;;7.65;;
77423;SDS011;66494;47.172;14.678;2023-05-21T04:52:46;11.38;;;7.70;;
77423;SDS011;66494;47.172;14.678;2023-05-21T04:53:46;10.10;;;7.22;;
77423;SDS011;66494;47.172;14.678;2023-05-21T04:54:47;8.60;;;6.93;;
77423;SDS011;66494;47.172;14.678;2023-05-21T04:55:47;11.52;;;8.20;;
77423;SDS011;66494;47.172;14.678;2023-05-21T04:56:48;11.05;;;8.05;;
77423;SDS011;66494;47.172;14.678;2023-05-21T04:57:48;11.45;;;8.43;;
77423;SDS011;66494;47.172;14.678;2023-05-21T04:58:48;10.07;;;7.78;;
77423;SDS011;66494;47.172;14.678;2023-05-21T04:59:48;10.00;;;8.30;;
77423;SDS011;66494;47.172;14.678;2023-05-21T05:00:48;10.80;;;8.05;;
77423;SDS011;66494;47.172;14.678;2023-05-21T05:01:50;9.32;;;7.07;;
77423;SDS011;66494;47.172;14.678;2023-05-21T05:02:51;9.98;;;8.05;;
77423;SDS011;66494;47.172;14.678;2023-05-21T05:03:51;10.93;;;8.15;;
77423;SDS011;66494;47.172;14.678;2023-05-21T05:04:52;10.13;;;7.82;;
77423;SDS011;66494;47.172;14.678;2023-05-21T05:05:52;9.43;;;7.60;;
77423;SDS011;66494;47.172;14.678;2023-05-21T05:06:52;9.65;;;8.23;;
77423;SDS011;66494;47.172;14.678;2023-05-21T05:07:52;9.88;;;7.05;;
77423;SDS011;66494;47.172;14.678;2023-05-21T05:08:53;9.32;;;6.95;;
77423;SDS011;66494;47.172;14.678;2023-05-21T05:09:53;9.93;;;8.15;;
77423;SDS011;66494;47.172;14.678;2023-05-21T05:10:53;9.65;;;7.50;;
77423;SDS011;66494;47.172;14.678;2023-05-21T05:11:54;11.63;;;7.05;;
77423;SDS011;66494;47.172;14.678;2023-05-21T05:12:54;9.88;;;7.20;;
77423;SDS011;66494;47.172;14.678;2023-05-21T05:13:54;9.82;;;7.38;;
77423;SDS011;66494;47.172;14.678;2023-05-21T05:14:54;8.82;;;6.50;;
77423;SDS011;66494;47.172;14.678;2023-05-21T05:15:55;8.30;;;6.85;;
77423;SDS011;66494;47.172;14.678;2023-05-21T05:16:56;9.40;;;6.75;;
77423;SDS011;66494;47.172;14.678;2023-05-21T05:17:59;9.80;;;6.55;;
77423;SDS011;66494;47.172;14.678;2023-05-21T05:18:59;9.20;;;7.07;;
77423;SDS011;66494;47.172;14.678;2023-05-21T05:20:00;8.82;;;6.57;;
77423;SDS011;66494;47.172;14.678;2023-05-21T05:21:00;8.63;;;6.38;;
77423;SDS011;66494;47.172;14.678;2023-05-21T05:22:01;8.98;;;7.00;;
77423;SDS011;66494;47.172;14.678;2023-05-21T05:23:01;8.32;;;6.45;;
77423;SDS011;66494;47.172;14.678;2023-05-21T05:24:01;10.05;;;7.85;;
77423;SDS011;66494;47.172;14.678;2023-05-21T05:25:01;8.48;;;6.75;;
77423;SDS011;66494;47.172;14.678;2023-05-21T05:26:02;9.07;;;7.45;;
77423;SDS011;66494;47.172;14.678;2023-05-21T05:27:02;9.02;;;7.18;;
77423;SDS011;66494;47.172;14.678;2023-05-21T05:28:02;9.07;;;7.40;;
77423;SDS011;66494;47.172;14.678;2023-05-21T05:29:02;9.13;;;6.70;;
77423;SDS011;66494;47.172;14.678;2023-05-21T05:30:03;9.07;;;6.53;;
77423;SDS011;66494;47.172;14.678;2023-05-21T05:31:03;11.25;;;7.63;;
77423;SDS011;66494;47.172;14.678;2023-05-21T05:32:03;9.07;;;6.53;;
77423;SDS011;66494;47.172;14.678;2023-05-21T05:33:04;9.90;;;6.88;;
77423;SDS011;66494;47.172;14.678;2023-05-21T05:34:04;10.05;;;7.50;;
77423;SDS011;66494;47.172;14.678;2023-05-21T05:35:04;8.27;;;6.43;;
77423;SDS011;66494;47.172;14.678;2023-05-21T05:36:05;9.15;;;7.40;;
77423;SDS011;66494;47.172;14.678;2023-05-21T05:38:06;8.93;;;6.15;;
77423;SDS011;66494;47.172;14.678;2023-05-21T05:39:07;10.20;;;6.60;;
77423;SDS011;66494;47.172;14.678;2023-05-21T05:40:08;9.27;;;6.80;;
77423;SDS011;66494;47.172;14.678;2023-05-21T05:41:08;8.63;;;6.63;;
77423;SDS011;66494;47.172;14.678;2023-05-21T05:42:08;10.18;;;7.28;;
77423;SDS011;66494;47.172;14.678;2023-05-21T05:43:08;11.65;;;7.40;;
77423;SDS011;66494;47.172;14.678;2023-05-21T05:44:09;10.82;;;7.93;;
77423;SDS011;66494;47.172;14.678;2023-05-21T05:45:09;9.02;;;7.55;;
77423;SDS011;66494;47.172;14.678;2023-05-21T05:46:09;11.60;;;8.43;;
77423;SDS011;66494;47.172;14.678;2023-05-21T05:47:10;12.00;;;8.25;;
77423;SDS011;66494;47.172;14.678;2023-05-21T05:48:10;11.43;;;7.88;;
77423;SDS011;66494;47.172;14.678;2023-05-21T05:49:11;11.57;;;8.10;;
77423;SDS011;66494;47.172;14.678;2023-05-21T05:50:12;11.07;;;7.40;;
77423;SDS011;66494;47.172;14.678;2023-05-21T05:51:12;14.63;;;8.77;;
77423;SDS011;66494;47.172;14.678;2023-05-21T05:52:14;10.25;;;8.13;;
77423;SDS011;66494;47.172;14.678;2023-05-21T05:53:14;12.35;;;9.18;;
77423;SDS011;66494;47.172;14.678;2023-05-21T05:54:15;12.05;;;8.82;;
77423;SDS011;66494;47.172;14.678;2023-05-21T05:55:15;13.38;;;8.13;;
77423;SDS011;66494;47.172;14.678;2023-05-21T05:56:15;11.05;;;8.25;;
77423;SDS011;66494;47.172;14.678;2023-05-21T05:57:16;9.70;;;7.40;;
77423;SDS011;66494;47.172;14.678;2023-05-21T05:58:16;12.15;;;8.43;;
77423;SDS011;66494;47.172;14.678;2023-05-21T05:59:16;10.88;;;7.78;;
77423;SDS011;66494;47.172;14.678;2023-05-21T06:00:16;10.88;;;8.25;;
77423;SDS011;66494;47.172;14.678;2023-05-21T06:01:17;11.57;;;8.02;;
77423;SDS011;66494;47.172;14.678;2023-05-21T06:02:18;9.70;;;7.55;;
77423;SDS011;66494;47.172;14.678;2023-05-21T06:03:18;11.02;;;8.63;;
77423;SDS011;66494;47.172;14.678;2023-05-21T06:04:18;12.00;;;8.15;;
77423;SDS011;66494;47.172;14.678;2023-05-21T06:05:18;10.57;;;8.52;;
77423;SDS011;66494;47.172;14.678;2023-05-21T06:07:19;11.35;;;8.30;;
77423;SDS011;66494;47.172;14.678;2023-05-21T06:08:19;13.60;;;8.07;;
77423;SDS011;66494;47.172;14.678;2023-05-21T06:09:20;12.43;;;7.88;;
77423;SDS011;66494;47.172;14.678;2023-05-21T06:11:21;11.00;;;8.30;;
77423;SDS011;66494;47.172;14.678;2023-05-21T06:12:21;12.50;;;8.88;;